createdAt,value
2022-10-07T00:00:40.533Z,12.40
2022-10-07T00:02:49.647Z,18.90
2022-10-07T00:04:58.401Z,15.73
2022-10-07T00:07:07.719Z,12.67
2022-10-07T00:09:16.995Z,15.43
2022-10-07T00:11:29.302Z,11.40
2022-10-07T00:13:40.665Z,14.33
2022-10-07T00:15:49.195Z,16.23
2022-10-07T00:17:58.201Z,18.97
2022-10-07T00:20:07.473Z,12.00
2022-10-07T00:22:16.724Z,13.13
2022-10-07T00:24:25.870Z,17.40
2022-10-07T00:26:35.544Z,18.20
2022-10-07T00:28:46.848Z,13.27
2022-10-07T00:30:59.003Z,10.33
2022-10-07T00:33:07.995Z,14.57
2022-10-07T00:35:17.064Z,10.70
2022-10-07T00:37:25.795Z,17.43
2022-10-07T00:39:35.093Z,13.60
2022-10-07T00:41:44.977Z,13.90
2022-10-07T00:43:55.971Z,15.07
2022-10-07T00:46:08.429Z,10.30
2022-10-07T00:48:19.982Z,13.53
2022-10-07T00:50:30.123Z,12.07
2022-10-07T00:52:42.109Z,12.37
2022-10-07T00:54:53.733Z,12.63
2022-10-07T00:57:02.944Z,14.33
2022-10-07T00:59:14.283Z,14.97
2022-10-07T01:01:25.532Z,12.43
2022-10-07T01:03:36.255Z,20.63
2022-10-07T01:05:45.473Z,12.87
2022-10-07T01:07:59.240Z,11.90
2022-10-07T01:10:11.818Z,16.43
2022-10-07T01:12:30.848Z,17.17
2022-10-07T01:14:53.667Z,14.17
2022-10-07T01:17:06.557Z,17.93
2022-10-07T01:19:21.373Z,12.60
2022-10-07T01:21:36.098Z,14.50
2022-10-07T01:23:57.843Z,12.87
2022-10-07T01:26:35.325Z,15.63
2022-10-07T01:28:49.422Z,8.90
2022-10-07T01:31:06.313Z,15.13
2022-10-07T01:33:19.157Z,13.73
2022-10-07T01:35:35.357Z,17.20
2022-10-07T01:37:48.837Z,17.57
2022-10-07T01:40:03.893Z,17.83
2022-10-07T01:42:22.730Z,16.17
2022-10-07T01:44:33.035Z,13.40
2022-10-07T01:46:41.673Z,13.10
2022-10-07T01:48:52.163Z,16.23
2022-10-07T01:51:02.315Z,14.57
2022-10-07T01:53:22.952Z,12.13
2022-10-07T01:55:50.902Z,8.17
2022-10-07T01:58:11.087Z,14.83
2022-10-07T02:00:22.739Z,13.77
2022-10-07T02:02:54.801Z,14.40
2022-10-07T02:05:15.044Z,18.47
2022-10-07T02:07:35.171Z,14.63
2022-10-07T02:09:48.057Z,13.47
2022-10-07T02:12:02.490Z,20.27
2022-10-07T02:14:15.460Z,18.00
2022-10-07T02:16:33.659Z,11.80
2022-10-07T02:18:48.393Z,13.93
2022-10-07T02:20:58.101Z,11.63
2022-10-07T02:23:09.826Z,13.97
2022-10-07T02:25:22.023Z,14.70
2022-10-07T02:27:35.097Z,8.70
2022-10-07T02:29:45.765Z,14.80
2022-10-07T02:31:58.640Z,18.83
2022-10-07T02:34:08.585Z,12.43
2022-10-07T02:36:22.611Z,11.00
2022-10-07T02:38:31.865Z,14.40
2022-10-07T02:40:45.194Z,11.40
2022-10-07T02:42:57.363Z,13.17
2022-10-07T02:45:09.193Z,9.37
2022-10-07T02:47:22.266Z,16.90
2022-10-07T02:49:31.944Z,9.10
2022-10-07T02:51:41.960Z,14.57
2022-10-07T02:53:51.921Z,16.17
2022-10-07T02:56:01.383Z,12.07
2022-10-07T02:58:15.614Z,14.37
2022-10-07T03:00:24.700Z,11.93
2022-10-07T03:02:38.409Z,11.43
2022-10-07T03:04:47.149Z,10.77
2022-10-07T03:06:58.714Z,12.47
2022-10-07T03:09:07.742Z,15.30
2022-10-07T03:11:16.545Z,10.93
2022-10-07T03:13:26.558Z,14.87
2022-10-07T03:15:42.051Z,19.90
2022-10-07T03:17:52.594Z,16.70
2022-10-07T03:20:01.386Z,8.97
2022-10-07T03:22:10.079Z,10.23
2022-10-07T03:24:19.415Z,13.23
2022-10-07T03:26:28.932Z,14.37
2022-10-07T03:28:38.777Z,12.50
2022-10-07T03:30:47.907Z,13.13
2022-10-07T03:32:58.531Z,12.93
2022-10-07T03:35:07.748Z,16.47
2022-10-07T03:37:17.601Z,9.80
2022-10-07T03:39:26.687Z,10.90
2022-10-07T03:41:35.201Z,18.07
2022-10-07T03:43:44.334Z,14.47
2022-10-07T03:45:53.057Z,16.37
2022-10-07T03:48:03.245Z,15.43
2022-10-07T03:50:11.784Z,12.10
2022-10-07T03:52:20.776Z,12.03
2022-10-07T03:54:29.972Z,13.70
2022-10-07T03:56:38.530Z,13.87
2022-10-07T03:58:47.667Z,12.93
2022-10-07T04:01:05.915Z,17.13
2022-10-07T04:03:18.985Z,17.87
2022-10-07T04:05:28.985Z,15.63
2022-10-07T04:07:44.971Z,12.37
2022-10-07T04:09:54.356Z,13.00
2022-10-07T04:12:02.984Z,10.83
2022-10-07T04:14:12.088Z,12.50
2022-10-07T04:16:22.353Z,14.13
2022-10-07T04:18:32.693Z,11.33
2022-10-07T04:20:41.235Z,15.67
2022-10-07T04:22:50.161Z,14.53
2022-10-07T04:25:18.822Z,14.07
2022-10-07T04:27:50.231Z,10.40
2022-10-07T04:29:56.276Z,14.60
2022-10-07T04:32:05.963Z,12.87
2022-10-07T04:34:16.170Z,17.10
2022-10-07T04:36:25.830Z,12.00
2022-10-07T04:38:34.554Z,13.57
2022-10-07T04:40:43.563Z,13.07
2022-10-07T04:43:21.174Z,11.97
2022-10-07T04:45:30.635Z,11.57
2022-10-07T04:47:39.474Z,11.87
2022-10-07T04:49:50.311Z,11.57
2022-10-07T04:51:58.886Z,12.67
2022-10-07T04:54:09.255Z,12.17
2022-10-07T04:56:20.587Z,11.20
2022-10-07T04:58:36.374Z,10.10
2022-10-07T05:00:46.052Z,12.70
2022-10-07T05:02:54.782Z,10.37
2022-10-07T05:05:05.838Z,10.97
2022-10-07T05:07:14.695Z,13.27
2022-10-07T05:09:23.826Z,14.47
2022-10-07T05:11:32.451Z,11.57
2022-10-07T05:13:41.681Z,12.47
2022-10-07T05:15:50.906Z,10.40
2022-10-07T05:17:59.911Z,13.03
2022-10-07T05:20:12.635Z,14.50
2022-10-07T05:22:21.731Z,15.47
2022-10-07T05:24:45.243Z,9.43
2022-10-07T05:26:59.127Z,10.23
2022-10-07T05:29:08.903Z,12.97
2022-10-07T05:31:18.417Z,9.53
2022-10-07T05:33:33.627Z,13.10
2022-10-07T05:35:48.142Z,11.73
2022-10-07T05:37:57.046Z,11.93
2022-10-07T05:40:06.267Z,18.33
2022-10-07T05:42:18.190Z,9.03
2022-10-07T05:44:27.469Z,12.27
2022-10-07T05:46:36.116Z,16.87
2022-10-07T05:48:47.945Z,16.80
2022-10-07T05:50:58.833Z,13.20
2022-10-07T05:53:07.873Z,15.53
2022-10-07T05:55:18.788Z,10.80
2022-10-07T05:57:27.762Z,13.90
2022-10-07T05:59:36.863Z,13.37
2022-10-07T06:01:45.512Z,11.20
2022-10-07T06:03:55.495Z,11.07
2022-10-07T06:06:06.613Z,10.00
2022-10-07T06:08:15.929Z,11.97
2022-10-07T06:10:42.549Z,10.53
2022-10-07T06:13:08.493Z,13.70
2022-10-07T06:15:17.554Z,13.47
2022-10-07T06:17:26.452Z,14.87
2022-10-07T06:19:35.175Z,15.93
2022-10-07T06:21:46.423Z,19.30
2022-10-07T06:23:55.118Z,16.40
2022-10-07T06:26:05.904Z,14.07
2022-10-07T06:28:17.518Z,16.70
2022-10-07T06:30:27.177Z,11.73
2022-10-07T06:32:36.334Z,12.80
2022-10-07T06:34:45.846Z,15.93
2022-10-07T06:36:56.887Z,13.63
2022-10-07T06:39:05.925Z,13.80
2022-10-07T06:41:15.501Z,12.50
2022-10-07T06:43:23.945Z,11.37
2022-10-07T06:45:33.730Z,13.47
2022-10-07T06:47:42.921Z,14.50
2022-10-07T06:49:52.268Z,16.63
2022-10-07T06:52:03.040Z,9.90
2022-10-07T06:54:12.240Z,10.27
2022-10-07T06:56:20.845Z,11.77
2022-10-07T06:58:29.834Z,8.23
2022-10-07T07:00:38.653Z,9.57
2022-10-07T07:02:47.732Z,12.47
2022-10-07T07:04:57.771Z,15.53
2022-10-07T07:07:08.043Z,11.93
2022-10-07T07:09:16.808Z,11.13
2022-10-07T07:11:42.557Z,13.67
2022-10-07T07:13:51.728Z,11.90
2022-10-07T07:16:01.771Z,13.37
2022-10-07T07:18:11.911Z,15.47
2022-10-07T07:20:20.540Z,10.00
2022-10-07T07:22:30.789Z,14.80
2022-10-07T07:24:39.821Z,11.40
2022-10-07T07:26:48.573Z,11.67
2022-10-07T07:28:59.090Z,9.93
2022-10-07T07:31:09.846Z,14.17
2022-10-07T07:33:19.107Z,16.30
2022-10-07T07:35:29.167Z,12.77
2022-10-07T07:37:39.868Z,16.30
2022-10-07T07:39:48.927Z,13.83
2022-10-07T07:41:58.136Z,8.93
2022-10-07T07:44:08.972Z,11.40
2022-10-07T07:46:17.684Z,12.20
2022-10-07T07:48:26.810Z,10.57
2022-10-07T07:50:35.367Z,16.33
2022-10-07T07:52:45.740Z,14.47
2022-10-07T07:54:58.224Z,12.50
2022-10-07T07:57:07.320Z,13.27
2022-10-07T07:59:17.105Z,14.43
2022-10-07T08:01:26.252Z,14.17
2022-10-07T08:03:37.405Z,14.13
2022-10-07T08:05:47.993Z,9.07
2022-10-07T08:07:58.200Z,10.90
2022-10-07T08:10:07.275Z,7.83
2022-10-07T08:12:16.338Z,10.30
2022-10-07T08:14:25.582Z,9.40
2022-10-07T08:16:35.008Z,13.20
2022-10-07T08:18:44.125Z,18.90
2022-10-07T08:20:58.644Z,14.97
2022-10-07T08:23:09.168Z,14.50
2022-10-07T08:25:18.499Z,10.77
2022-10-07T08:27:27.127Z,14.40
2022-10-07T08:29:35.898Z,12.10
2022-10-07T08:31:45.027Z,13.33
2022-10-07T08:33:54.181Z,11.80
2022-10-07T08:36:04.445Z,6.90
2022-10-07T08:38:15.605Z,7.50
2022-10-07T08:40:24.702Z,9.77
2022-10-07T08:42:37.058Z,11.20
2022-10-07T08:44:48.011Z,13.17
2022-10-07T08:47:00.966Z,12.97
2022-10-07T08:49:13.702Z,11.23
2022-10-07T08:51:23.614Z,12.20
2022-10-07T08:53:35.158Z,12.17
2022-10-07T08:55:45.022Z,14.80
2022-10-07T08:58:08.430Z,10.17
2022-10-07T09:00:20.897Z,19.90
2022-10-07T09:02:32.180Z,13.03
2022-10-07T09:04:48.296Z,6.43
2022-10-07T09:07:00.886Z,10.07
2022-10-07T09:09:15.065Z,9.83
2022-10-07T09:11:26.007Z,10.03
2022-10-07T09:13:37.596Z,11.77
2022-10-07T09:15:49.104Z,12.50
2022-10-07T09:18:01.580Z,8.70
2022-10-07T09:20:16.542Z,7.27
2022-10-07T09:22:32.672Z,11.43
2022-10-07T09:24:44.763Z,9.23
2022-10-07T09:26:57.206Z,9.43
2022-10-07T09:29:05.755Z,9.17
2022-10-07T09:31:16.633Z,7.23
2022-10-07T09:33:26.369Z,9.80
2022-10-07T09:35:35.724Z,8.30
2022-10-07T09:37:58.086Z,6.67
2022-10-07T09:42:43.040Z,9.30
2022-10-07T09:44:53.751Z,10.57
2022-10-07T09:47:14.044Z,12.47
2022-10-07T09:49:34.620Z,8.30
2022-10-07T09:51:43.347Z,10.40
2022-10-07T09:53:59.383Z,8.47
2022-10-07T09:56:08.262Z,9.33
2022-10-07T09:58:23.670Z,7.93
2022-10-07T10:00:32.806Z,11.67
2022-10-07T10:02:43.059Z,10.10
2022-10-07T10:04:53.533Z,10.70
2022-10-07T10:07:04.239Z,7.93
2022-10-07T10:09:18.158Z,12.57
2022-10-07T10:11:30.070Z,7.93
2022-10-07T10:13:41.898Z,9.60
2022-10-07T10:15:51.063Z,10.50
2022-10-07T10:18:00.086Z,12.37
2022-10-07T10:20:28.374Z,13.37
2022-10-07T10:22:37.342Z,11.97
2022-10-07T10:25:03.365Z,7.87
2022-10-07T10:27:15.218Z,11.80
2022-10-07T10:29:40.252Z,12.07
2022-10-07T10:32:07.827Z,7.30
2022-10-07T10:34:24.444Z,6.43
2022-10-07T10:36:35.367Z,5.17
2022-10-07T10:38:49.272Z,7.07
2022-10-07T10:41:01.426Z,9.20
2022-10-07T10:43:16.993Z,9.33
2022-10-07T10:45:34.680Z,9.17
2022-10-07T10:47:51.246Z,8.50
2022-10-07T10:50:08.456Z,8.00
2022-10-07T10:52:22.622Z,5.77
2022-10-07T10:54:34.166Z,10.37
2022-10-07T10:56:46.025Z,7.63
2022-10-07T10:59:00.008Z,9.77
2022-10-07T11:01:16.114Z,8.23
2022-10-07T11:03:43.375Z,7.33
2022-10-07T11:05:53.039Z,9.30
2022-10-07T11:08:04.664Z,8.00
2022-10-07T11:10:20.031Z,9.17
2022-10-07T11:12:31.478Z,9.30
2022-10-07T11:14:45.905Z,8.53
2022-10-07T11:17:00.230Z,7.63
2022-10-07T11:19:13.363Z,8.80
2022-10-07T11:21:24.498Z,9.83
2022-10-07T11:23:39.624Z,13.77
2022-10-07T11:25:51.856Z,9.03
2022-10-07T11:28:07.771Z,9.10
2022-10-07T11:30:20.734Z,11.40
2022-10-07T11:32:33.998Z,6.47
2022-10-07T11:34:48.898Z,6.40
2022-10-07T11:37:03.462Z,6.87
2022-10-07T11:39:16.732Z,7.40
2022-10-07T11:41:27.593Z,10.50
2022-10-07T11:43:40.063Z,10.33
2022-10-07T11:45:52.266Z,8.77
2022-10-07T11:48:05.397Z,9.17
2022-10-07T11:50:18.062Z,7.53
2022-10-07T11:52:28.182Z,8.83
2022-10-07T11:54:41.173Z,10.67
2022-10-07T11:56:52.248Z,11.80
2022-10-07T11:59:02.187Z,5.93
2022-10-07T12:01:29.790Z,7.67
2022-10-07T12:03:50.160Z,6.47
2022-10-07T12:06:00.488Z,10.93
2022-10-07T12:08:26.355Z,5.07
2022-10-07T12:10:35.847Z,8.73
2022-10-07T12:12:53.016Z,4.70
2022-10-07T12:15:03.729Z,10.13
2022-10-07T12:17:28.484Z,5.23
2022-10-07T12:19:39.289Z,6.60
2022-10-07T12:22:09.008Z,8.10
2022-10-07T12:24:18.078Z,6.20
2022-10-07T12:26:51.514Z,5.93
2022-10-07T12:29:01.139Z,6.23
2022-10-07T12:31:32.394Z,6.90
2022-10-07T12:33:43.852Z,8.37
2022-10-07T12:35:55.024Z,7.57
2022-10-07T12:38:07.689Z,5.80
2022-10-07T12:40:18.190Z,6.37
2022-10-07T12:42:29.828Z,8.77
2022-10-07T12:44:41.657Z,7.03
2022-10-07T12:46:52.582Z,6.57
2022-10-07T12:49:04.100Z,6.17
2022-10-07T12:51:19.508Z,7.83
2022-10-07T12:53:30.605Z,8.57
2022-10-07T12:55:41.214Z,8.73
2022-10-07T12:57:52.146Z,6.57
2022-10-07T13:00:06.156Z,6.30
2022-10-07T13:02:33.262Z,6.37
2022-10-07T13:04:52.835Z,5.93
2022-10-07T13:07:16.849Z,6.70
2022-10-07T13:09:40.547Z,6.40
2022-10-07T13:11:57.090Z,7.03
2022-10-07T13:14:12.616Z,7.67
2022-10-07T13:16:24.456Z,6.63
2022-10-07T13:18:38.991Z,8.27
2022-10-07T13:21:05.425Z,4.83
2022-10-07T13:23:16.493Z,9.30
2022-10-07T13:25:25.781Z,5.73
2022-10-07T13:27:38.735Z,7.97
2022-10-07T13:29:48.090Z,7.60
2022-10-07T13:32:07.790Z,7.27
2022-10-07T13:34:20.054Z,7.70
2022-10-07T13:36:29.495Z,8.83
2022-10-07T13:38:38.473Z,6.07
2022-10-07T13:40:54.614Z,6.63
2022-10-07T13:43:07.506Z,8.80
2022-10-07T13:45:17.152Z,6.70
2022-10-07T13:47:29.415Z,6.00
2022-10-07T13:49:40.635Z,8.00
2022-10-07T13:51:54.128Z,8.33
2022-10-07T13:54:06.293Z,8.93
2022-10-07T13:56:20.777Z,3.43
2022-10-07T13:58:33.262Z,7.30
2022-10-07T14:00:44.557Z,5.20
2022-10-07T14:02:53.492Z,7.97
2022-10-07T14:05:06.207Z,3.87
2022-10-07T14:07:20.053Z,7.47
2022-10-07T14:09:37.671Z,5.47
2022-10-07T14:11:49.216Z,9.20
2022-10-07T14:14:02.427Z,5.60
2022-10-07T14:16:22.381Z,4.50
2022-10-07T14:18:32.266Z,6.27
2022-10-07T14:20:46.636Z,7.43
2022-10-07T14:22:56.954Z,4.27
2022-10-07T14:25:07.180Z,4.83
2022-10-07T14:27:30.980Z,8.27
2022-10-07T14:29:41.492Z,6.53
2022-10-07T14:32:08.034Z,5.60
2022-10-07T14:34:35.117Z,5.43
2022-10-07T14:36:59.150Z,4.23
2022-10-07T14:39:22.791Z,4.63
2022-10-07T14:41:32.172Z,6.43
2022-10-07T14:43:42.493Z,6.13
2022-10-07T14:45:53.168Z,5.33
2022-10-07T14:48:02.794Z,3.20
2022-10-07T14:50:12.386Z,5.23
2022-10-07T14:52:24.812Z,4.13
2022-10-07T14:54:34.734Z,11.50
2022-10-07T14:56:43.926Z,20.47
2022-10-07T14:58:52.995Z,5.57
2022-10-07T15:01:03.877Z,4.03
2022-10-07T15:03:13.851Z,4.27
2022-10-07T15:05:23.515Z,5.53
2022-10-07T15:07:32.940Z,3.67
2022-10-07T15:09:41.539Z,8.13
2022-10-07T15:11:50.541Z,3.87
2022-10-07T15:14:00.604Z,4.27
2022-10-07T15:16:16.187Z,5.30
2022-10-07T15:18:24.789Z,3.87
2022-10-07T15:20:34.786Z,4.60
2022-10-07T15:22:44.476Z,3.83
2022-10-07T15:25:00.132Z,5.23
2022-10-07T15:27:10.155Z,9.73
2022-10-07T15:29:19.564Z,3.07
2022-10-07T15:31:36.901Z,3.73
2022-10-07T15:33:46.830Z,4.87
2022-10-07T15:35:55.710Z,5.90
2022-10-07T15:38:04.451Z,7.87
2022-10-07T15:40:13.971Z,5.60
2022-10-07T15:42:23.349Z,6.83
2022-10-07T15:44:32.221Z,4.10
2022-10-07T15:46:42.663Z,8.60
2022-10-07T15:48:51.889Z,5.33
2022-10-07T15:51:01.031Z,4.43
2022-10-07T15:53:13.173Z,4.37
2022-10-07T15:55:21.891Z,5.03
2022-10-07T15:57:30.845Z,5.57
2022-10-07T15:59:39.670Z,4.33
2022-10-07T16:01:52.251Z,9.40
2022-10-07T16:04:01.570Z,6.37
2022-10-07T16:06:11.326Z,5.47
2022-10-07T16:08:20.403Z,5.30
2022-10-07T16:10:29.737Z,5.90
2022-10-07T16:12:38.420Z,5.03
2022-10-07T16:14:47.814Z,9.10
2022-10-07T16:16:59.081Z,3.30
2022-10-07T16:19:08.414Z,3.33
2022-10-07T16:21:18.617Z,4.03
2022-10-07T16:23:27.644Z,3.97
2022-10-07T16:25:37.824Z,4.97
2022-10-07T16:28:04.226Z,3.27
2022-10-07T16:30:31.227Z,2.07
2022-10-07T16:32:41.572Z,3.67
2022-10-07T16:34:50.504Z,5.70
2022-10-07T16:37:00.067Z,5.77
2022-10-07T16:39:10.328Z,5.27
2022-10-07T16:41:19.818Z,3.00
2022-10-07T16:43:29.856Z,6.07
2022-10-07T16:45:41.197Z,5.63
2022-10-07T16:47:52.021Z,3.50
2022-10-07T16:50:00.633Z,5.37
2022-10-07T16:52:11.410Z,5.13
2022-10-07T16:54:20.690Z,2.93
2022-10-07T16:56:30.267Z,7.90
2022-10-07T16:58:38.977Z,3.80
2022-10-07T17:00:48.152Z,7.67
2022-10-07T17:02:58.059Z,6.20
2022-10-07T17:05:07.637Z,5.90
2022-10-07T17:07:16.606Z,8.00
2022-10-07T17:09:26.141Z,4.80
2022-10-07T17:11:36.246Z,5.87
2022-10-07T17:13:45.334Z,4.97
2022-10-07T17:15:54.396Z,5.27
2022-10-07T17:18:04.672Z,6.60
2022-10-07T17:20:13.510Z,6.80
2022-10-07T17:22:22.549Z,7.70
2022-10-07T17:24:31.898Z,4.07
2022-10-07T17:26:41.717Z,3.93
2022-10-07T17:28:51.166Z,8.47
2022-10-07T17:31:06.022Z,6.50
2022-10-07T17:33:17.378Z,6.13
2022-10-07T17:35:28.331Z,4.57
2022-10-07T17:37:37.017Z,9.27
2022-10-07T17:39:46.305Z,7.40
2022-10-07T17:41:55.281Z,4.40
2022-10-07T17:44:04.977Z,7.00
2022-10-07T17:46:14.796Z,8.10
2022-10-07T17:48:25.624Z,9.67
2022-10-07T17:50:35.359Z,7.60
2022-10-07T17:52:44.219Z,3.67
2022-10-07T17:54:56.700Z,7.27
2022-10-07T17:57:05.381Z,9.20
2022-10-07T17:59:14.546Z,3.83
2022-10-07T18:01:27.163Z,7.80
2022-10-07T18:03:38.855Z,4.90
2022-10-07T18:05:52.726Z,5.77
2022-10-07T18:08:02.874Z,7.77
2022-10-07T18:10:11.932Z,7.67
2022-10-07T18:12:38.694Z,5.53
2022-10-07T18:15:05.557Z,5.63
2022-10-07T18:17:14.637Z,6.00
2022-10-07T18:19:26.999Z,6.40
2022-10-07T18:21:36.490Z,7.63
2022-10-07T18:23:45.786Z,5.93
2022-10-07T18:25:58.138Z,3.40
2022-10-07T18:28:11.331Z,4.63
2022-10-07T18:30:20.425Z,7.27
2022-10-07T18:32:29.309Z,4.27
2022-10-07T18:34:40.261Z,10.07
2022-10-07T18:36:53.823Z,4.47
2022-10-07T18:39:05.999Z,5.40
2022-10-07T18:41:16.080Z,4.80
2022-10-07T18:43:25.625Z,5.23
2022-10-07T18:45:34.874Z,5.03
2022-10-07T18:47:44.238Z,6.00
2022-10-07T18:49:57.484Z,6.33
2022-10-07T18:52:07.601Z,4.07
2022-10-07T18:54:17.397Z,4.67
2022-10-07T18:56:27.289Z,6.63
2022-10-07T18:58:36.800Z,7.67
2022-10-07T19:00:45.936Z,7.13
2022-10-07T19:02:55.461Z,6.40
2022-10-07T19:05:07.536Z,4.20
2022-10-07T19:07:17.301Z,5.97
2022-10-07T19:09:27.397Z,2.83
2022-10-07T19:11:36.661Z,4.00
2022-10-07T19:13:52.230Z,9.30
2022-10-07T19:16:04.996Z,6.10
2022-10-07T19:18:13.970Z,5.97
2022-10-07T19:20:24.642Z,5.47
2022-10-07T19:22:34.014Z,6.40
2022-10-07T19:25:03.291Z,8.13
2022-10-07T19:27:13.162Z,4.43
2022-10-07T19:29:22.324Z,5.90
2022-10-07T19:31:32.769Z,6.67
2022-10-07T19:33:42.912Z,6.93
2022-10-07T19:35:57.460Z,6.33
2022-10-07T19:38:06.891Z,6.97
2022-10-07T19:40:15.494Z,5.73
2022-10-07T19:42:24.570Z,4.83
2022-10-07T19:44:33.736Z,7.87
2022-10-07T19:46:43.072Z,6.60
2022-10-07T19:48:54.448Z,6.80
2022-10-07T19:51:05.753Z,3.83
2022-10-07T19:53:15.739Z,6.40
2022-10-07T19:55:25.863Z,7.73
2022-10-07T19:57:34.656Z,5.50
2022-10-07T19:59:43.812Z,5.47
2022-10-07T20:01:55.725Z,6.37
2022-10-07T20:04:08.312Z,5.47
2022-10-07T20:06:18.683Z,6.30
2022-10-07T20:08:28.136Z,6.37
2022-10-07T20:10:40.104Z,6.30
2022-10-07T20:12:48.776Z,5.53
2022-10-07T20:14:58.103Z,6.03
2022-10-07T20:17:07.244Z,7.03
2022-10-07T20:19:18.587Z,7.73
2022-10-07T20:21:29.939Z,4.63
2022-10-07T20:23:40.173Z,7.07
2022-10-07T20:25:49.229Z,6.57
2022-10-07T20:27:58.245Z,5.63
2022-10-07T20:30:17.626Z,7.77
2022-10-07T20:32:27.718Z,10.03
2022-10-07T20:34:36.380Z,6.83
2022-10-07T20:36:47.228Z,5.80
2022-10-07T20:39:17.070Z,7.63
2022-10-07T20:41:39.905Z,7.13
2022-10-07T20:43:52.163Z,3.43
2022-10-07T20:46:00.833Z,4.97
2022-10-07T20:48:09.416Z,3.73
2022-10-07T20:50:18.108Z,5.43
2022-10-07T20:52:29.693Z,6.17
2022-10-07T20:54:38.508Z,5.73
2022-10-07T20:56:47.337Z,7.07
2022-10-07T20:58:56.056Z,2.03
2022-10-07T21:01:08.800Z,3.87
2022-10-07T21:03:18.777Z,3.17
2022-10-07T21:05:30.113Z,2.97
2022-10-07T21:07:40.747Z,4.30
2022-10-07T21:09:50.015Z,5.80
2022-10-07T21:11:58.793Z,6.27
2022-10-07T21:14:07.565Z,6.13
2022-10-07T21:16:16.667Z,5.73
2022-10-07T21:18:26.776Z,3.43
2022-10-07T21:20:36.505Z,6.73
2022-10-07T21:22:48.966Z,5.80
2022-10-07T21:24:58.911Z,7.30
2022-10-07T21:27:08.367Z,4.63
2022-10-07T21:29:18.925Z,6.80
2022-10-07T21:31:27.502Z,4.43
2022-10-07T21:33:37.215Z,6.70
2022-10-07T21:35:46.249Z,6.73
2022-10-07T21:37:56.989Z,5.20
2022-10-07T21:40:05.795Z,4.73
2022-10-07T21:42:16.117Z,5.93
2022-10-07T21:44:25.423Z,7.60
2022-10-07T21:46:35.333Z,5.97
2022-10-07T21:48:44.281Z,3.67
2022-10-07T21:50:55.929Z,5.97
2022-10-07T21:53:06.293Z,5.20
2022-10-07T21:55:15.006Z,6.20
2022-10-07T21:57:23.896Z,4.93
2022-10-07T21:59:35.383Z,7.90
2022-10-07T22:01:44.331Z,8.37
2022-10-07T22:03:55.989Z,9.07
2022-10-07T22:06:04.898Z,7.67
2022-10-07T22:08:33.706Z,8.70
2022-10-07T22:10:42.428Z,3.83
2022-10-07T22:12:51.162Z,7.07
2022-10-07T22:14:59.979Z,7.87
2022-10-07T22:17:08.593Z,7.47
2022-10-07T22:19:18.058Z,9.20
2022-10-07T22:21:27.988Z,6.93
2022-10-07T22:23:38.715Z,5.57
2022-10-07T22:25:47.423Z,7.63
2022-10-07T22:27:56.623Z,5.90
2022-10-07T22:30:07.149Z,8.07
2022-10-07T22:32:16.295Z,7.10
2022-10-07T22:34:42.843Z,7.63
2022-10-07T22:36:51.861Z,5.70
2022-10-07T22:39:02.205Z,6.67
2022-10-07T22:41:12.086Z,7.43
2022-10-07T22:43:21.039Z,6.07
2022-10-07T22:45:30.308Z,5.20
2022-10-07T22:47:39.663Z,6.33
2022-10-07T22:49:48.961Z,4.60
2022-10-07T22:51:58.333Z,6.33
2022-10-07T22:54:09.094Z,9.23
2022-10-07T22:56:21.014Z,4.10
2022-10-07T22:58:30.281Z,6.93
2022-10-07T23:00:39.704Z,10.47
2022-10-07T23:02:48.896Z,3.97
2022-10-07T23:05:01.667Z,9.10
2022-10-07T23:07:10.807Z,5.07
2022-10-07T23:09:21.186Z,6.43
2022-10-07T23:11:31.075Z,7.73
2022-10-07T23:13:40.191Z,8.83
2022-10-07T23:15:56.614Z,6.67
2022-10-07T23:18:05.749Z,8.90
2022-10-07T23:20:14.737Z,7.73
2022-10-07T23:22:23.562Z,7.43
2022-10-07T23:24:34.251Z,9.70
2022-10-07T23:26:43.819Z,9.10
2022-10-07T23:28:53.633Z,5.90
2022-10-07T23:31:05.022Z,6.53
2022-10-07T23:33:14.251Z,9.27
2022-10-07T23:35:22.838Z,8.47
2022-10-07T23:37:31.582Z,13.07
2022-10-07T23:39:41.917Z,11.50
2022-10-07T23:41:50.720Z,6.60
2022-10-07T23:43:59.786Z,7.00
2022-10-07T23:46:10.730Z,5.33
2022-10-07T23:48:19.911Z,4.90
2022-10-07T23:50:29.299Z,5.43
2022-10-07T23:52:38.464Z,8.40
2022-10-07T23:54:48.614Z,6.50
2022-10-07T23:56:58.971Z,12.93
2022-10-07T23:59:08.124Z,8.83
